Route Details

Aircraft Information
Group: Trans-Pacific Ops
Types: B744, MD11
Route Data
Distance: 679nm
Duration: 2h 10m
Origin METAR: RKSI 080030Z 32008KT 9000 NSC 02/M02 Q1027 NOSIG
Dest. METAR: RJAA 080030Z 02013G23KT 350V060 9999 FEW020 BKN050 10/04 Q1015 NOSIG RMK 1CU020 7SC050 A3000
Freight Data
(for Feb 8, 2023)
Load Factor:
45%
Manifested Cargo: 98,007lbs
Financial History
Total Freight: 1,100,533lbs
Average Load: 0lbs/flt
Fuel Used: 285,693lbs
Avg. Fuel Used: 0lbs/flt
Fuel Expense: $133,218
Avg. Fuel Expense: $0
Avg. Fuel Cost: $0/lbs
Total Gross Income: $2,515,233
Pilot Pay: $2,340
Total Expenses: $362,589
Total Revenue: $2,014,461
Average Revenue: $0

Capitol Logistics 814




RKSI
Incheon International Airport
Seoul, KR
RJAA
Tokyo-Narita International Airport
Tokyo, JP